createdAt,value
2023-01-12T00:01:40.397Z,1.20
2023-01-12T00:04:08.146Z,1.50
2023-01-12T00:06:35.497Z,1.52
2023-01-12T00:09:03.856Z,1.70
2023-01-12T00:11:31.077Z,1.30
2023-01-12T00:13:58.709Z,1.60
2023-01-12T00:16:34.974Z,1.65
2023-01-12T00:19:07.039Z,1.55
2023-01-12T00:21:38.411Z,1.40
2023-01-12T00:24:08.600Z,1.67
2023-01-12T00:26:35.836Z,1.33
2023-01-12T00:29:03.063Z,1.15
2023-01-12T00:31:30.959Z,1.50
2023-01-12T00:33:58.175Z,1.40
2023-01-12T00:36:25.437Z,1.30
2023-01-12T00:38:52.655Z,1.60
2023-01-12T00:41:38.364Z,1.45
2023-01-12T00:44:24.254Z,1.75
2023-01-12T00:46:51.494Z,1.98
2023-01-12T00:49:18.747Z,2.35
2023-01-12T00:51:46.011Z,1.70
2023-01-12T00:54:13.221Z,1.88
2023-01-12T00:56:40.472Z,2.05
2023-01-12T00:59:07.706Z,2.05
2023-01-12T01:01:35.066Z,2.08
2023-01-12T01:04:02.594Z,2.10
2023-01-12T01:06:29.824Z,2.70
2023-01-12T01:08:57.084Z,2.33
2023-01-12T01:11:24.287Z,2.50
2023-01-12T01:13:51.762Z,2.45
2023-01-12T01:16:19.029Z,2.05
2023-01-12T01:18:46.273Z,2.10
2023-01-12T01:21:13.566Z,2.72
2023-01-12T01:23:41.351Z,3.40
2023-01-12T01:26:10.726Z,2.15
2023-01-12T01:28:37.949Z,2.00
2023-01-12T01:31:09.571Z,2.33
2023-01-12T01:33:36.932Z,2.17
2023-01-12T01:36:04.276Z,2.13
2023-01-12T01:38:31.600Z,2.13
2023-01-12T01:40:58.966Z,2.20
2023-01-12T01:43:26.878Z,1.63
2023-01-12T01:46:00.523Z,1.92
2023-01-12T01:48:27.804Z,1.92
2023-01-12T01:51:00.235Z,2.22
2023-01-12T01:53:28.374Z,2.10
2023-01-12T01:56:11.566Z,2.03
2023-01-12T01:58:44.890Z,1.98
2023-01-12T02:01:12.185Z,1.60
2023-01-12T02:03:39.404Z,1.90
2023-01-12T02:06:06.750Z,1.73
2023-01-12T02:08:52.382Z,1.92
2023-01-12T02:11:37.964Z,2.05
2023-01-12T02:14:23.489Z,1.80
2023-01-12T02:17:17.882Z,2.35
2023-01-12T02:20:06.920Z,1.77
2023-01-12T02:22:52.760Z,1.77
2023-01-12T02:25:24.543Z,1.60
2023-01-12T02:28:33.285Z,2.03
2023-01-12T02:31:39.195Z,1.70
2023-01-12T02:34:13.584Z,1.98
2023-01-12T02:37:01.886Z,1.75
2023-01-12T02:39:42.009Z,1.85
2023-01-12T02:42:38.892Z,1.77
2023-01-12T02:45:31.118Z,1.80
2023-01-12T02:48:05.306Z,1.58
2023-01-12T02:50:47.454Z,2.03
2023-01-12T02:53:43.048Z,2.10
2023-01-12T02:56:11.543Z,1.50
2023-01-12T02:58:43.794Z,1.55
2023-01-12T03:01:11.120Z,2.00
2023-01-12T03:03:39.786Z,1.70
2023-01-12T03:06:07.408Z,1.70
2023-01-12T03:08:36.658Z,2.15
2023-01-12T03:11:06.720Z,1.60
2023-01-12T03:13:36.051Z,1.77
2023-01-12T03:16:03.774Z,1.90
2023-01-12T03:18:58.525Z,1.60
2023-01-12T03:21:32.905Z,2.00
2023-01-12T03:24:04.956Z,1.83
2023-01-12T03:26:33.301Z,1.80
2023-01-12T03:29:12.539Z,1.80
2023-01-12T03:31:39.795Z,1.98
2023-01-12T03:34:07.077Z,1.63
2023-01-12T03:37:12.948Z,1.88
2023-01-12T03:40:02.485Z,1.80
2023-01-12T03:42:49.148Z,1.52
2023-01-12T03:45:45.588Z,1.80
2023-01-12T03:48:23.232Z,1.98
2023-01-12T03:51:07.179Z,1.60
2023-01-12T03:53:34.381Z,1.60
2023-01-12T03:56:04.193Z,1.70
2023-01-12T03:58:32.547Z,2.00
2023-01-12T04:00:59.925Z,2.10
2023-01-12T04:03:27.486Z,1.70
2023-01-12T04:05:54.723Z,1.70
2023-01-12T04:08:22.148Z,1.60
2023-01-12T04:10:49.353Z,1.80
2023-01-12T04:13:16.600Z,1.52
2023-01-12T04:15:43.824Z,1.77
2023-01-12T04:18:11.637Z,2.15
2023-01-12T04:20:39.061Z,1.60
2023-01-12T04:23:07.141Z,1.48
2023-01-12T04:25:34.416Z,1.90
2023-01-12T04:28:02.786Z,1.63
2023-01-12T04:30:31.078Z,1.95
2023-01-12T04:32:58.861Z,1.27
2023-01-12T04:35:26.308Z,1.40
2023-01-12T04:37:53.676Z,1.48
2023-01-12T04:40:20.913Z,1.70
2023-01-12T04:43:01.815Z,1.75
2023-01-12T04:45:30.519Z,1.60
2023-01-12T04:48:08.972Z,1.45
2023-01-12T04:50:36.323Z,1.50
2023-01-12T04:53:04.385Z,1.50
2023-01-12T04:55:31.740Z,1.40
2023-01-12T04:57:58.925Z,1.65
2023-01-12T05:00:26.194Z,1.50
2023-01-12T05:03:06.175Z,1.52
2023-01-12T05:05:33.531Z,1.42
2023-01-12T05:08:20.212Z,1.65
2023-01-12T05:10:51.472Z,1.63
2023-01-12T05:13:18.895Z,1.80
2023-01-12T05:15:46.104Z,1.63
2023-01-12T05:18:13.314Z,1.67
2023-01-12T05:20:40.511Z,1.50
2023-01-12T05:23:07.714Z,1.85
2023-01-12T05:25:34.917Z,2.20
2023-01-12T05:28:02.155Z,9.98
2023-01-12T05:30:31.526Z,9.80
2023-01-12T05:32:59.309Z,2.58
2023-01-12T05:35:26.506Z,1.88
2023-01-12T05:37:56.209Z,2.00
2023-01-12T05:40:23.581Z,1.90
2023-01-12T05:43:09.956Z,1.90
2023-01-12T05:45:37.297Z,1.70
2023-01-12T05:48:04.649Z,1.70
2023-01-12T05:50:31.857Z,2.47
2023-01-12T05:53:09.213Z,1.55
2023-01-12T05:55:39.615Z,1.70
2023-01-12T05:58:06.814Z,1.92
2023-01-12T06:00:34.068Z,1.63
2023-01-12T06:03:02.772Z,1.80
2023-01-12T06:05:30.009Z,1.75
2023-01-12T06:07:58.142Z,2.03
2023-01-12T06:10:25.428Z,2.00
2023-01-12T06:13:11.202Z,3.78
2023-01-12T06:15:38.640Z,7.53
2023-01-12T06:18:05.975Z,5.50
2023-01-12T06:20:33.207Z,3.83
2023-01-12T06:23:02.109Z,2.50
2023-01-12T06:25:30.034Z,2.20
2023-01-12T06:27:57.331Z,1.65
2023-01-12T06:30:24.719Z,1.50
2023-01-12T06:32:51.963Z,1.50
2023-01-12T06:35:20.032Z,1.63
2023-01-12T06:37:47.375Z,3.15
2023-01-12T06:40:15.749Z,2.83
2023-01-12T06:42:43.022Z,3.03
2023-01-12T06:45:10.727Z,2.78
2023-01-12T06:47:48.662Z,2.10
2023-01-12T06:50:16.226Z,1.95
2023-01-12T06:52:43.485Z,1.90
2023-01-12T06:55:10.760Z,1.60
2023-01-12T06:57:37.963Z,1.77
2023-01-12T07:00:06.275Z,1.55
2023-01-12T07:02:33.517Z,2.25
2023-01-12T07:05:00.747Z,1.83
2023-01-12T07:07:27.942Z,1.85
2023-01-12T07:09:55.209Z,1.65
2023-01-12T07:12:22.414Z,2.30
2023-01-12T07:14:49.679Z,2.10
2023-01-12T07:17:16.961Z,1.65
2023-01-12T07:19:44.184Z,2.03
2023-01-12T07:22:11.438Z,2.20
2023-01-12T07:24:38.624Z,1.80
2023-01-12T07:27:06.169Z,1.52
2023-01-12T07:29:33.374Z,2.55
2023-01-12T07:32:01.713Z,1.85
2023-01-12T07:34:29.877Z,1.80
2023-01-12T07:36:57.118Z,1.70
2023-01-12T07:39:24.538Z,1.90
2023-01-12T07:42:10.232Z,2.00
2023-01-12T07:44:37.412Z,2.05
2023-01-12T07:47:04.633Z,1.58
2023-01-12T07:49:31.852Z,1.42
2023-01-12T07:51:59.075Z,1.40
2023-01-12T07:54:26.299Z,1.90
2023-01-12T07:56:53.485Z,1.58
2023-01-12T07:59:20.834Z,1.50
2023-01-12T08:01:48.058Z,1.83
2023-01-12T08:04:15.393Z,1.60
2023-01-12T08:06:42.601Z,1.80
2023-01-12T08:09:09.876Z,1.67
2023-01-12T08:11:37.964Z,1.67
2023-01-12T08:14:05.508Z,1.55
2023-01-12T08:16:38.275Z,1.13
2023-01-12T08:19:07.733Z,1.60
2023-01-12T08:21:41.695Z,1.40
2023-01-12T08:24:09.458Z,1.35
2023-01-12T08:26:38.522Z,1.40
2023-01-12T08:29:15.140Z,1.67
2023-01-12T08:31:42.398Z,1.50
2023-01-12T08:34:09.832Z,1.70
2023-01-12T08:36:37.077Z,1.77
2023-01-12T08:39:04.786Z,1.58
2023-01-12T08:41:37.300Z,1.58
2023-01-12T08:44:09.251Z,1.20
2023-01-12T08:46:50.117Z,1.67
2023-01-12T08:49:17.883Z,1.60
2023-01-12T08:51:45.250Z,1.25
2023-01-12T08:54:13.457Z,1.42
2023-01-12T08:56:40.689Z,1.42
2023-01-12T08:59:08.087Z,1.52
2023-01-12T09:01:35.559Z,1.58
2023-01-12T09:04:02.851Z,1.70
2023-01-12T09:06:31.681Z,1.90
2023-01-12T09:09:00.730Z,1.63
2023-01-12T09:11:28.937Z,1.20
2023-01-12T09:13:58.414Z,2.08
2023-01-12T09:16:26.621Z,1.88
2023-01-12T09:18:53.910Z,1.58
2023-01-12T09:21:21.932Z,2.35
2023-01-12T09:23:52.657Z,2.55
2023-01-12T09:26:23.989Z,1.38
2023-01-12T09:28:51.616Z,1.17
2023-01-12T09:31:20.357Z,1.85
2023-01-12T09:33:47.802Z,2.13
2023-01-12T09:36:19.798Z,1.80
2023-01-12T09:38:47.521Z,1.30
2023-01-12T09:41:51.407Z,1.50
2023-01-12T09:44:41.396Z,1.73
2023-01-12T09:47:36.062Z,1.23
2023-01-12T09:50:15.886Z,1.55
2023-01-12T09:52:48.717Z,1.40
2023-01-12T09:55:20.576Z,1.20
2023-01-12T09:58:09.029Z,1.33
2023-01-12T10:00:36.223Z,1.35
2023-01-12T10:03:28.125Z,1.38
2023-01-12T10:05:58.077Z,1.30
2023-01-12T10:08:29.634Z,1.48
2023-01-12T10:11:15.173Z,1.45
2023-01-12T10:14:00.474Z,1.35
2023-01-12T10:16:36.595Z,1.23
2023-01-12T10:19:26.479Z,1.50
2023-01-12T10:21:53.861Z,1.42
2023-01-12T10:24:22.704Z,1.40
2023-01-12T10:27:16.368Z,1.35
2023-01-12T10:29:43.580Z,1.48
2023-01-12T10:32:12.184Z,1.30
2023-01-12T10:34:50.224Z,1.60
2023-01-12T10:37:17.587Z,1.20
2023-01-12T10:39:44.854Z,1.42
2023-01-12T10:42:39.333Z,0.90
2023-01-12T10:45:15.666Z,1.40
2023-01-12T10:47:43.568Z,1.10
2023-01-12T10:50:27.882Z,1.02
2023-01-12T10:53:03.528Z,1.15
2023-01-12T10:55:35.017Z,1.23
2023-01-12T10:58:02.282Z,1.10
2023-01-12T11:00:29.844Z,1.13
2023-01-12T11:02:57.144Z,1.38
2023-01-12T11:05:31.761Z,0.90
2023-01-12T11:07:59.040Z,1.60
2023-01-12T11:10:32.014Z,1.20
2023-01-12T11:13:00.713Z,1.15
2023-01-12T11:15:28.236Z,1.45
2023-01-12T11:18:01.250Z,0.80
2023-01-12T11:20:44.125Z,0.93
2023-01-12T11:23:17.964Z,0.80
2023-01-12T11:25:49.918Z,0.90
2023-01-12T11:28:38.242Z,0.90
2023-01-12T11:31:11.314Z,1.00
2023-01-12T11:33:39.672Z,1.08
2023-01-12T11:36:11.833Z,1.27
2023-01-12T11:38:41.152Z,0.82
2023-01-12T11:41:13.479Z,0.93
2023-01-12T11:44:00.651Z,0.85
2023-01-12T11:46:46.723Z,1.15
2023-01-12T11:49:22.766Z,1.10
2023-01-12T11:51:53.441Z,1.15
2023-01-12T11:54:20.662Z,1.10
2023-01-12T11:56:52.164Z,1.27
2023-01-12T11:59:41.714Z,1.20
2023-01-12T12:02:14.806Z,1.15
2023-01-12T12:04:49.526Z,1.50
2023-01-12T12:07:36.896Z,1.30
2023-01-12T12:10:24.286Z,1.85
2023-01-12T12:13:16.443Z,1.20
2023-01-12T12:16:17.988Z,1.02
2023-01-12T12:19:26.580Z,1.20
2023-01-12T12:22:22.251Z,1.42
2023-01-12T12:24:54.663Z,1.30
2023-01-12T12:27:34.968Z,1.00
2023-01-12T12:30:23.764Z,1.30
2023-01-12T12:33:09.475Z,0.80
2023-01-12T12:35:56.530Z,1.23
2023-01-12T12:38:38.116Z,1.10
2023-01-12T12:41:33.349Z,1.10
2023-01-12T12:45:15.827Z,1.10
2023-01-12T12:47:55.430Z,0.90
2023-01-12T12:50:30.280Z,1.10
2023-01-12T12:55:31.966Z,0.70
2023-01-12T12:58:00.617Z,1.08
2023-01-12T13:00:40.304Z,0.80
2023-01-12T13:03:07.877Z,1.20
2023-01-12T13:05:46.224Z,0.85
2023-01-12T13:08:26.528Z,1.13
2023-01-12T13:10:57.709Z,1.00
2023-01-12T13:13:28.883Z,1.00
2023-01-12T13:16:17.933Z,0.95
2023-01-12T13:18:50.894Z,1.00
2023-01-12T13:21:31.525Z,1.20
2023-01-12T13:24:24.720Z,1.00
2023-01-12T13:26:57.657Z,1.23
2023-01-12T13:29:27.838Z,1.38
2023-01-12T13:31:59.630Z,1.00
2023-01-12T13:34:29.897Z,1.20
2023-01-12T13:37:26.127Z,1.10
2023-01-12T13:40:21.797Z,1.33
2023-01-12T13:43:07.883Z,1.30
2023-01-12T13:45:35.087Z,1.15
2023-01-12T13:48:02.275Z,0.80
2023-01-12T13:50:29.569Z,1.10
2023-01-12T13:53:01.485Z,1.27
2023-01-12T13:55:33.483Z,1.33
2023-01-12T13:58:16.442Z,0.90
2023-01-12T14:00:43.714Z,1.00
2023-01-12T14:03:16.020Z,1.00
2023-01-12T14:05:49.523Z,1.25
2023-01-12T14:08:16.719Z,1.10
2023-01-12T14:10:50.513Z,1.23
2023-01-12T14:13:26.577Z,1.13
2023-01-12T14:16:19.414Z,1.00
2023-01-12T14:18:48.210Z,1.00
2023-01-12T14:21:44.011Z,0.80
2023-01-12T14:24:20.779Z,1.33
2023-01-12T14:26:47.962Z,0.90
2023-01-12T14:29:15.227Z,1.10
2023-01-12T14:31:44.537Z,0.85
2023-01-12T14:34:25.415Z,1.08
2023-01-12T14:36:52.603Z,1.00
2023-01-12T14:39:22.552Z,1.20
2023-01-12T14:42:10.168Z,1.10
2023-01-12T14:45:08.611Z,0.80
2023-01-12T14:47:35.927Z,1.08
2023-01-12T14:50:12.570Z,1.00
2023-01-12T14:52:44.040Z,0.93
2023-01-12T14:55:41.664Z,1.10
2023-01-12T14:58:19.172Z,1.02
2023-01-12T15:00:46.650Z,1.40
2023-01-12T15:03:21.270Z,1.00
2023-01-12T15:05:54.882Z,0.82
2023-01-12T15:08:26.789Z,0.90
2023-01-12T15:11:07.888Z,1.00
2023-01-12T15:13:36.002Z,0.90
2023-01-12T15:16:22.795Z,1.10
2023-01-12T15:19:08.669Z,1.30
2023-01-12T15:21:54.823Z,1.13
2023-01-12T15:24:42.681Z,1.10
2023-01-12T15:27:11.517Z,1.27
2023-01-12T15:29:38.776Z,1.15
2023-01-12T15:32:06.164Z,1.17
2023-01-12T15:34:33.418Z,1.00
2023-01-12T15:37:00.656Z,1.30
2023-01-12T15:39:27.876Z,2.05
2023-01-12T15:42:13.983Z,1.23
2023-01-12T15:44:41.264Z,1.52
2023-01-12T15:47:12.512Z,1.00
2023-01-12T15:49:41.316Z,1.10
2023-01-12T15:52:16.460Z,1.17
2023-01-12T15:54:43.759Z,1.38
2023-01-12T15:57:11.439Z,1.15
2023-01-12T15:59:39.129Z,1.20
2023-01-12T16:02:25.856Z,1.33
2023-01-12T16:04:53.172Z,1.27
2023-01-12T16:07:20.520Z,1.05
2023-01-12T16:09:48.047Z,1.33
2023-01-12T16:12:15.420Z,1.05
2023-01-12T16:14:42.623Z,1.08
2023-01-12T16:17:09.795Z,1.08
2023-01-12T16:19:41.273Z,1.02
2023-01-12T16:22:21.979Z,1.13
2023-01-12T16:24:50.162Z,1.00
2023-01-12T16:27:18.485Z,0.93
2023-01-12T16:29:45.747Z,1.15
2023-01-12T16:32:13.122Z,1.10
2023-01-12T16:34:40.589Z,0.95
2023-01-12T16:37:14.548Z,1.17
2023-01-12T16:39:42.565Z,1.20
2023-01-12T16:42:10.195Z,1.00
2023-01-12T16:44:38.524Z,1.02
2023-01-12T16:47:12.067Z,1.17
2023-01-12T16:49:39.639Z,1.85
2023-01-12T16:52:07.469Z,1.38
2023-01-12T16:54:38.511Z,1.38
2023-01-12T16:57:05.733Z,1.30
2023-01-12T16:59:32.990Z,1.20
2023-01-12T17:02:00.610Z,1.30
2023-01-12T17:04:28.172Z,1.60
2023-01-12T17:06:55.493Z,1.35
2023-01-12T17:09:23.112Z,1.23
2023-01-12T17:11:50.466Z,1.30
2023-01-12T17:14:24.219Z,1.40
2023-01-12T17:16:52.611Z,1.50
2023-01-12T17:19:20.441Z,1.40
2023-01-12T17:21:49.681Z,1.50
2023-01-12T17:24:18.852Z,1.30
2023-01-12T17:26:46.628Z,1.33
2023-01-12T17:29:13.957Z,1.60
2023-01-12T17:31:41.514Z,1.25
2023-01-12T17:34:10.689Z,1.40
2023-01-12T17:36:38.218Z,1.25
2023-01-12T17:39:05.480Z,1.70
2023-01-12T17:41:51.480Z,1.45
2023-01-12T17:44:18.756Z,1.80
2023-01-12T17:46:45.989Z,1.35
2023-01-12T17:49:13.579Z,1.20
2023-01-12T17:51:40.960Z,1.60
2023-01-12T17:54:09.076Z,1.40
2023-01-12T17:56:36.309Z,1.67
2023-01-12T17:59:03.653Z,1.50
2023-01-12T18:01:32.193Z,2.28
2023-01-12T18:03:59.797Z,1.98
2023-01-12T18:06:27.379Z,1.70
2023-01-12T18:08:56.335Z,1.90
2023-01-12T18:11:23.832Z,1.60
2023-01-12T18:13:51.080Z,1.50
2023-01-12T18:16:18.419Z,2.00
2023-01-12T18:18:46.127Z,1.52
2023-01-12T18:21:15.204Z,1.77
2023-01-12T18:23:43.481Z,1.70
2023-01-12T18:26:15.819Z,1.67
2023-01-12T18:28:43.088Z,1.30
2023-01-12T18:31:15.499Z,1.65
2023-01-12T18:33:42.914Z,1.73
2023-01-12T18:36:11.450Z,1.73
2023-01-12T18:38:41.669Z,2.38
2023-01-12T18:41:27.817Z,1.50
2023-01-12T18:43:55.209Z,1.67
2023-01-12T18:46:42.729Z,1.50
2023-01-12T18:49:09.988Z,1.77
2023-01-12T18:51:55.744Z,1.45
2023-01-12T18:54:22.938Z,2.10
2023-01-12T18:56:51.607Z,1.95
2023-01-12T18:59:18.801Z,1.60
2023-01-12T19:01:46.111Z,1.40
2023-01-12T19:04:15.344Z,1.58
2023-01-12T19:06:44.567Z,1.38
2023-01-12T19:09:31.334Z,1.33
2023-01-12T19:11:58.951Z,1.45
2023-01-12T19:15:04.648Z,1.55
2023-01-12T19:17:32.685Z,1.60
2023-01-12T19:20:05.726Z,1.45
2023-01-12T19:22:51.981Z,1.52
2023-01-12T19:25:39.505Z,1.50
2023-01-12T19:28:25.635Z,1.55
2023-01-12T19:30:52.893Z,1.67
2023-01-12T19:33:21.099Z,1.40
2023-01-12T19:35:48.473Z,1.25
2023-01-12T19:38:15.683Z,1.92
2023-01-12T19:40:51.880Z,1.90
2023-01-12T19:43:20.995Z,1.90
2023-01-12T19:45:52.257Z,1.83
2023-01-12T19:48:20.922Z,1.67
2023-01-12T19:50:48.437Z,1.92
2023-01-12T19:53:18.954Z,1.70
2023-01-12T19:55:46.447Z,1.80
2023-01-12T19:58:13.874Z,1.65
2023-01-12T20:00:46.213Z,1.75
2023-01-12T20:03:19.229Z,1.85
2023-01-12T20:05:53.211Z,1.63
2023-01-12T20:08:22.006Z,1.83
2023-01-12T20:10:56.715Z,8.38
2023-01-12T20:15:51.118Z,3.55
2023-01-12T20:18:18.762Z,2.45
2023-01-12T20:20:46.112Z,2.72
2023-01-12T20:23:13.435Z,2.08
2023-01-12T20:25:41.101Z,1.73
2023-01-12T20:28:08.620Z,1.55
2023-01-12T20:30:38.470Z,1.60
2023-01-12T20:33:06.660Z,1.55
2023-01-12T20:35:34.946Z,1.65
2023-01-12T20:38:03.554Z,1.50
2023-01-12T20:40:30.822Z,1.70
2023-01-12T20:42:58.219Z,1.83
2023-01-12T20:45:25.451Z,2.15
2023-01-12T20:47:52.645Z,2.42
2023-01-12T20:50:19.943Z,2.20
2023-01-12T20:52:52.601Z,2.40
2023-01-12T20:55:21.048Z,2.20
2023-01-12T20:57:48.990Z,2.20
2023-01-12T21:00:16.899Z,1.90
2023-01-12T21:02:44.195Z,1.83
2023-01-12T21:05:11.419Z,1.50
2023-01-12T21:07:38.912Z,1.70
2023-01-12T21:10:08.702Z,1.67
2023-01-12T21:12:35.960Z,1.98
2023-01-12T21:15:03.911Z,2.00
2023-01-12T21:17:31.572Z,1.60
2023-01-12T21:19:58.794Z,1.67
2023-01-12T21:22:25.998Z,1.83
2023-01-12T21:24:53.214Z,1.80
2023-01-12T21:27:20.450Z,2.08
2023-01-12T21:29:47.818Z,2.38
2023-01-12T21:32:15.071Z,2.20
2023-01-12T21:34:42.285Z,2.13
2023-01-12T21:37:09.481Z,1.75
2023-01-12T21:39:36.657Z,2.00
2023-01-12T21:42:22.661Z,1.67
2023-01-12T21:44:49.908Z,1.80
2023-01-12T21:47:17.115Z,2.42
2023-01-12T21:49:44.293Z,2.40
2023-01-12T21:52:11.592Z,3.08
2023-01-12T21:54:38.792Z,2.58
2023-01-12T21:57:06.008Z,2.10
2023-01-12T21:59:33.175Z,2.28
2023-01-12T22:02:00.798Z,2.10
2023-01-12T22:04:28.143Z,2.50
2023-01-12T22:06:55.360Z,2.25
2023-01-12T22:09:23.544Z,2.13
2023-01-12T22:11:50.715Z,1.95
2023-01-12T22:14:18.000Z,1.85
2023-01-12T22:16:45.223Z,1.95
2023-01-12T22:19:12.472Z,1.95
2023-01-12T22:21:40.853Z,1.90
2023-01-12T22:24:08.155Z,1.50
2023-01-12T22:26:35.511Z,1.38
2023-01-12T22:29:02.739Z,1.08
2023-01-12T22:31:30.076Z,1.30
2023-01-12T22:34:04.754Z,1.30
2023-01-12T22:36:34.840Z,1.10
2023-01-12T22:39:02.513Z,1.10
2023-01-12T22:41:29.740Z,1.05
2023-01-12T22:43:56.964Z,1.00
2023-01-12T22:46:25.434Z,1.10
2023-01-12T22:48:55.188Z,1.00
2023-01-12T22:51:24.818Z,1.20
2023-01-12T22:53:52.437Z,1.33
2023-01-12T22:56:19.879Z,1.30
2023-01-12T22:58:51.186Z,1.50
2023-01-12T23:01:18.789Z,1.17
2023-01-12T23:03:46.197Z,1.33
2023-01-12T23:06:14.453Z,1.00
2023-01-12T23:08:42.720Z,1.05
2023-01-12T23:11:14.862Z,1.40
2023-01-12T23:13:42.756Z,1.10
2023-01-12T23:16:10.786Z,1.40
2023-01-12T23:18:38.804Z,1.10
2023-01-12T23:21:15.374Z,0.98
2023-01-12T23:23:49.925Z,1.20
2023-01-12T23:26:22.554Z,1.02
2023-01-12T23:28:52.132Z,1.00
2023-01-12T23:31:21.373Z,1.15
2023-01-12T23:33:48.762Z,1.05
2023-01-12T23:36:18.074Z,1.13
2023-01-12T23:38:45.411Z,0.98
2023-01-12T23:41:18.314Z,1.50
2023-01-12T23:43:46.416Z,0.90
2023-01-12T23:46:13.938Z,1.05
2023-01-12T23:48:41.143Z,1.00
2023-01-12T23:51:08.604Z,1.05
2023-01-12T23:53:35.821Z,1.00
2023-01-12T23:56:07.076Z,0.90
2023-01-12T23:58:34.307Z,1.10
